sensor_id;sensor_type;location;lat;lon;timestamp;P1;durP1;ratioP1;P2;durP2;ratioP2
38785;SDS011;24535;45.508;12.252;2023-12-14T00:00:13;7.05;;;5.68;;
38785;SDS011;24535;45.508;12.252;2023-12-14T00:02:39;5.63;;;4.50;;
38785;SDS011;24535;45.508;12.252;2023-12-14T00:05:05;5.07;;;4.50;;
38785;SDS011;24535;45.508;12.252;2023-12-14T00:07:30;8.25;;;5.05;;
38785;SDS011;24535;45.508;12.252;2023-12-14T00:09:56;7.25;;;5.97;;
38785;SDS011;24535;45.508;12.252;2023-12-14T00:12:21;5.28;;;4.78;;
38785;SDS011;24535;45.508;12.252;2023-12-14T00:14:47;8.10;;;5.53;;
38785;SDS011;24535;45.508;12.252;2023-12-14T00:17:12;8.02;;;5.53;;
38785;SDS011;24535;45.508;12.252;2023-12-14T00:19:38;6.40;;;5.18;;
38785;SDS011;24535;45.508;12.252;2023-12-14T00:22:03;7.28;;;6.13;;
38785;SDS011;24535;45.508;12.252;2023-12-14T00:24:29;8.85;;;6.13;;
38785;SDS011;24535;45.508;12.252;2023-12-14T00:26:54;9.95;;;5.88;;
38785;SDS011;24535;45.508;12.252;2023-12-14T00:29:19;9.95;;;6.45;;
38785;SDS011;24535;45.508;12.252;2023-12-14T00:31:45;9.00;;;6.47;;
38785;SDS011;24535;45.508;12.252;2023-12-14T00:34:10;8.13;;;5.95;;
38785;SDS011;24535;45.508;12.252;2023-12-14T00:36:36;7.10;;;5.60;;
38785;SDS011;24535;45.508;12.252;2023-12-14T00:39:01;6.20;;;4.75;;
38785;SDS011;24535;45.508;12.252;2023-12-14T00:41:27;8.23;;;5.68;;
38785;SDS011;24535;45.508;12.252;2023-12-14T00:43:53;6.90;;;5.55;;
38785;SDS011;24535;45.508;12.252;2023-12-14T00:46:18;7.80;;;5.78;;
38785;SDS011;24535;45.508;12.252;2023-12-14T00:48:44;7.50;;;5.10;;
38785;SDS011;24535;45.508;12.252;2023-12-14T00:51:09;5.75;;;5.15;;
38785;SDS011;24535;45.508;12.252;2023-12-14T00:53:35;5.90;;;5.28;;
38785;SDS011;24535;45.508;12.252;2023-12-14T00:56:00;10.98;;;6.07;;
38785;SDS011;24535;45.508;12.252;2023-12-14T00:58:25;8.25;;;5.63;;
38785;SDS011;24535;45.508;12.252;2023-12-14T01:00:51;7.85;;;5.90;;
38785;SDS011;24535;45.508;12.252;2023-12-14T01:03:19;7.22;;;5.50;;
38785;SDS011;24535;45.508;12.252;2023-12-14T01:05:44;6.78;;;5.22;;
38785;SDS011;24535;45.508;12.252;2023-12-14T01:08:10;6.90;;;5.88;;
38785;SDS011;24535;45.508;12.252;2023-12-14T01:10:36;6.57;;;5.43;;
38785;SDS011;24535;45.508;12.252;2023-12-14T01:13:01;7.45;;;5.70;;
38785;SDS011;24535;45.508;12.252;2023-12-14T01:15:27;9.52;;;7.57;;
38785;SDS011;24535;45.508;12.252;2023-12-14T01:17:52;9.23;;;7.10;;
38785;SDS011;24535;45.508;12.252;2023-12-14T01:20:17;9.55;;;7.32;;
38785;SDS011;24535;45.508;12.252;2023-12-14T01:22:43;8.48;;;7.35;;
38785;SDS011;24535;45.508;12.252;2023-12-14T01:25:08;9.80;;;6.05;;
38785;SDS011;24535;45.508;12.252;2023-12-14T01:27:34;8.80;;;6.47;;
38785;SDS011;24535;45.508;12.252;2023-12-14T01:29:59;8.18;;;6.22;;
38785;SDS011;24535;45.508;12.252;2023-12-14T01:32:24;8.48;;;5.65;;
38785;SDS011;24535;45.508;12.252;2023-12-14T01:34:50;9.75;;;7.00;;
38785;SDS011;24535;45.508;12.252;2023-12-14T01:37:15;11.48;;;6.70;;
38785;SDS011;24535;45.508;12.252;2023-12-14T01:39:41;6.68;;;5.97;;
38785;SDS011;24535;45.508;12.252;2023-12-14T01:42:06;9.45;;;7.18;;
38785;SDS011;24535;45.508;12.252;2023-12-14T01:44:32;6.97;;;5.85;;
38785;SDS011;24535;45.508;12.252;2023-12-14T01:46:57;10.27;;;6.25;;
38785;SDS011;24535;45.508;12.252;2023-12-14T01:49:23;10.13;;;7.82;;
38785;SDS011;24535;45.508;12.252;2023-12-14T01:51:48;7.30;;;6.20;;
38785;SDS011;24535;45.508;12.252;2023-12-14T01:54:13;7.75;;;6.78;;
38785;SDS011;24535;45.508;12.252;2023-12-14T01:56:39;8.88;;;6.68;;
38785;SDS011;24535;45.508;12.252;2023-12-14T01:59:05;10.15;;;6.65;;
38785;SDS011;24535;45.508;12.252;2023-12-14T02:04:04;8.90;;;6.78;;
38785;SDS011;24535;45.508;12.252;2023-12-14T02:06:31;8.65;;;6.95;;
38785;SDS011;24535;45.508;12.252;2023-12-14T02:08:57;8.82;;;6.78;;
38785;SDS011;24535;45.508;12.252;2023-12-14T02:11:22;8.95;;;6.63;;
38785;SDS011;24535;45.508;12.252;2023-12-14T02:13:48;9.27;;;6.72;;
38785;SDS011;24535;45.508;12.252;2023-12-14T02:16:13;6.68;;;5.90;;
38785;SDS011;24535;45.508;12.252;2023-12-14T02:18:40;9.95;;;8.02;;
38785;SDS011;24535;45.508;12.252;2023-12-14T02:21:05;7.88;;;5.47;;
38785;SDS011;24535;45.508;12.252;2023-12-14T02:23:31;8.27;;;6.72;;
38785;SDS011;24535;45.508;12.252;2023-12-14T02:25:56;7.25;;;6.55;;
38785;SDS011;24535;45.508;12.252;2023-12-14T02:28:22;7.70;;;6.93;;
38785;SDS011;24535;45.508;12.252;2023-12-14T02:30:47;8.45;;;6.63;;
38785;SDS011;24535;45.508;12.252;2023-12-14T02:33:13;7.53;;;6.70;;
38785;SDS011;24535;45.508;12.252;2023-12-14T02:35:39;5.82;;;5.28;;
38785;SDS011;24535;45.508;12.252;2023-12-14T02:38:04;7.47;;;5.38;;
38785;SDS011;24535;45.508;12.252;2023-12-14T02:40:29;7.35;;;6.10;;
38785;SDS011;24535;45.508;12.252;2023-12-14T02:42:55;7.25;;;6.55;;
38785;SDS011;24535;45.508;12.252;2023-12-14T02:45:20;7.07;;;6.03;;
38785;SDS011;24535;45.508;12.252;2023-12-14T02:47:46;7.22;;;5.68;;
38785;SDS011;24535;45.508;12.252;2023-12-14T02:50:13;8.13;;;6.43;;
38785;SDS011;24535;45.508;12.252;2023-12-14T02:52:38;7.90;;;6.53;;
38785;SDS011;24535;45.508;12.252;2023-12-14T02:55:04;8.80;;;5.95;;
38785;SDS011;24535;45.508;12.252;2023-12-14T02:57:30;8.43;;;7.32;;
38785;SDS011;24535;45.508;12.252;2023-12-14T02:59:55;8.82;;;5.80;;
38785;SDS011;24535;45.508;12.252;2023-12-14T03:02:20;6.75;;;6.13;;
38785;SDS011;24535;45.508;12.252;2023-12-14T03:04:47;8.23;;;6.65;;
38785;SDS011;24535;45.508;12.252;2023-12-14T03:07:12;6.97;;;5.22;;
38785;SDS011;24535;45.508;12.252;2023-12-14T03:09:41;7.00;;;6.07;;
38785;SDS011;24535;45.508;12.252;2023-12-14T03:12:08;5.72;;;5.22;;
38785;SDS011;24535;45.508;12.252;2023-12-14T03:14:34;8.60;;;5.72;;
38785;SDS011;24535;45.508;12.252;2023-12-14T03:16:59;6.72;;;5.30;;
38785;SDS011;24535;45.508;12.252;2023-12-14T03:19:25;7.65;;;6.60;;
38785;SDS011;24535;45.508;12.252;2023-12-14T03:21:50;7.30;;;6.35;;
38785;SDS011;24535;45.508;12.252;2023-12-14T03:24:15;8.07;;;6.38;;
38785;SDS011;24535;45.508;12.252;2023-12-14T03:26:41;8.88;;;6.38;;
38785;SDS011;24535;45.508;12.252;2023-12-14T03:29:07;9.23;;;6.60;;
38785;SDS011;24535;45.508;12.252;2023-12-14T03:31:33;10.13;;;7.05;;
38785;SDS011;24535;45.508;12.252;2023-12-14T03:33:59;12.10;;;6.75;;
38785;SDS011;24535;45.508;12.252;2023-12-14T03:36:25;9.40;;;6.78;;
38785;SDS011;24535;45.508;12.252;2023-12-14T03:38:51;10.38;;;6.72;;
38785;SDS011;24535;45.508;12.252;2023-12-14T03:41:17;12.13;;;7.40;;
38785;SDS011;24535;45.508;12.252;2023-12-14T03:43:42;10.80;;;7.10;;
38785;SDS011;24535;45.508;12.252;2023-12-14T03:46:09;10.55;;;6.55;;
38785;SDS011;24535;45.508;12.252;2023-12-14T03:48:34;8.25;;;6.75;;
38785;SDS011;24535;45.508;12.252;2023-12-14T03:51:03;12.82;;;6.80;;
38785;SDS011;24535;45.508;12.252;2023-12-14T03:53:29;8.27;;;7.22;;
38785;SDS011;24535;45.508;12.252;2023-12-14T03:55:55;12.27;;;7.22;;
38785;SDS011;24535;45.508;12.252;2023-12-14T03:58:20;12.70;;;7.85;;
38785;SDS011;24535;45.508;12.252;2023-12-14T04:00:46;9.00;;;6.30;;
38785;SDS011;24535;45.508;12.252;2023-12-14T04:03:11;9.32;;;7.00;;
38785;SDS011;24535;45.508;12.252;2023-12-14T04:05:37;11.13;;;7.78;;
38785;SDS011;24535;45.508;12.252;2023-12-14T04:08:03;8.27;;;6.65;;
38785;SDS011;24535;45.508;12.252;2023-12-14T04:10:29;9.10;;;7.05;;
38785;SDS011;24535;45.508;12.252;2023-12-14T04:12:55;10.15;;;7.28;;
38785;SDS011;24535;45.508;12.252;2023-12-14T04:15:21;8.48;;;7.22;;
38785;SDS011;24535;45.508;12.252;2023-12-14T04:17:46;8.73;;;7.05;;
38785;SDS011;24535;45.508;12.252;2023-12-14T04:20:12;12.90;;;8.52;;
38785;SDS011;24535;45.508;12.252;2023-12-14T04:22:40;6.10;;;5.50;;
38785;SDS011;24535;45.508;12.252;2023-12-14T04:25:06;9.45;;;8.20;;
38785;SDS011;24535;45.508;12.252;2023-12-14T04:27:32;7.85;;;7.10;;
38785;SDS011;24535;45.508;12.252;2023-12-14T04:29:58;10.40;;;6.38;;
38785;SDS011;24535;45.508;12.252;2023-12-14T04:32:23;8.68;;;6.70;;
38785;SDS011;24535;45.508;12.252;2023-12-14T04:34:49;9.90;;;6.78;;
38785;SDS011;24535;45.508;12.252;2023-12-14T04:37:14;12.25;;;6.72;;
38785;SDS011;24535;45.508;12.252;2023-12-14T04:39:40;8.38;;;7.05;;
38785;SDS011;24535;45.508;12.252;2023-12-14T04:42:05;9.93;;;5.97;;
38785;SDS011;24535;45.508;12.252;2023-12-14T04:44:31;8.00;;;6.70;;
38785;SDS011;24535;45.508;12.252;2023-12-14T04:46:56;7.38;;;5.30;;
38785;SDS011;24535;45.508;12.252;2023-12-14T04:49:21;9.35;;;6.30;;
38785;SDS011;24535;45.508;12.252;2023-12-14T04:51:47;6.72;;;5.88;;
38785;SDS011;24535;45.508;12.252;2023-12-14T04:54:12;11.07;;;6.47;;
38785;SDS011;24535;45.508;12.252;2023-12-14T04:56:37;8.88;;;6.47;;
38785;SDS011;24535;45.508;12.252;2023-12-14T04:59:03;5.85;;;5.07;;
38785;SDS011;24535;45.508;12.252;2023-12-14T05:01:28;7.82;;;5.65;;
38785;SDS011;24535;45.508;12.252;2023-12-14T05:03:54;8.02;;;5.78;;
38785;SDS011;24535;45.508;12.252;2023-12-14T05:06:20;6.25;;;4.93;;
38785;SDS011;24535;45.508;12.252;2023-12-14T05:08:46;8.07;;;5.88;;
38785;SDS011;24535;45.508;12.252;2023-12-14T05:11:12;6.00;;;5.40;;
38785;SDS011;24535;45.508;12.252;2023-12-14T05:13:38;6.00;;;5.43;;
38785;SDS011;24535;45.508;12.252;2023-12-14T05:16:04;7.55;;;5.60;;
38785;SDS011;24535;45.508;12.252;2023-12-14T05:18:30;7.93;;;6.38;;
38785;SDS011;24535;45.508;12.252;2023-12-14T05:20:55;7.57;;;5.53;;
38785;SDS011;24535;45.508;12.252;2023-12-14T05:23:21;6.13;;;5.45;;
38785;SDS011;24535;45.508;12.252;2023-12-14T05:25:46;8.05;;;4.32;;
38785;SDS011;24535;45.508;12.252;2023-12-14T05:28:12;6.25;;;4.88;;
38785;SDS011;24535;45.508;12.252;2023-12-14T05:30:38;7.22;;;5.07;;
38785;SDS011;24535;45.508;12.252;2023-12-14T05:33:03;8.07;;;5.05;;
38785;SDS011;24535;45.508;12.252;2023-12-14T05:35:29;7.32;;;5.22;;
38785;SDS011;24535;45.508;12.252;2023-12-14T05:37:54;6.57;;;5.15;;
38785;SDS011;24535;45.508;12.252;2023-12-14T05:40:20;6.75;;;4.38;;
38785;SDS011;24535;45.508;12.252;2023-12-14T05:42:45;6.45;;;4.90;;
38785;SDS011;24535;45.508;12.252;2023-12-14T05:45:11;6.32;;;5.55;;
38785;SDS011;24535;45.508;12.252;2023-12-14T05:47:36;8.38;;;6.38;;
38785;SDS011;24535;45.508;12.252;2023-12-14T05:50:02;8.63;;;6.07;;
38785;SDS011;24535;45.508;12.252;2023-12-14T05:52:29;5.38;;;4.57;;
38785;SDS011;24535;45.508;12.252;2023-12-14T05:54:54;7.65;;;4.90;;
38785;SDS011;24535;45.508;12.252;2023-12-14T05:57:19;9.48;;;5.03;;
38785;SDS011;24535;45.508;12.252;2023-12-14T05:59:45;15.15;;;5.28;;
38785;SDS011;24535;45.508;12.252;2023-12-14T06:02:10;7.65;;;4.72;;
38785;SDS011;24535;45.508;12.252;2023-12-14T06:04:36;8.73;;;5.00;;
38785;SDS011;24535;45.508;12.252;2023-12-14T06:07:01;5.88;;;4.80;;
38785;SDS011;24535;45.508;12.252;2023-12-14T06:09:27;5.78;;;4.93;;
38785;SDS011;24535;45.508;12.252;2023-12-14T06:12:00;7.20;;;4.50;;
38785;SDS011;24535;45.508;12.252;2023-12-14T06:14:27;5.90;;;4.88;;
38785;SDS011;24535;45.508;12.252;2023-12-14T06:16:52;7.07;;;4.45;;
38785;SDS011;24535;45.508;12.252;2023-12-14T06:19:18;8.88;;;4.50;;
38785;SDS011;24535;45.508;12.252;2023-12-14T06:21:43;8.13;;;5.13;;
38785;SDS011;24535;45.508;12.252;2023-12-14T06:24:09;5.68;;;4.60;;
38785;SDS011;24535;45.508;12.252;2023-12-14T06:26:35;16.02;;;5.45;;
38785;SDS011;24535;45.508;12.252;2023-12-14T06:29:00;8.52;;;5.13;;
38785;SDS011;24535;45.508;12.252;2023-12-14T06:31:26;8.70;;;5.47;;
38785;SDS011;24535;45.508;12.252;2023-12-14T06:33:51;6.88;;;4.30;;
38785;SDS011;24535;45.508;12.252;2023-12-14T06:36:17;6.32;;;4.75;;
38785;SDS011;24535;45.508;12.252;2023-12-14T06:38:45;7.78;;;4.85;;
38785;SDS011;24535;45.508;12.252;2023-12-14T06:41:23;10.25;;;4.82;;
38785;SDS011;24535;45.508;12.252;2023-12-14T06:43:49;11.25;;;5.90;;
38785;SDS011;24535;45.508;12.252;2023-12-14T06:46:15;8.57;;;4.93;;
38785;SDS011;24535;45.508;12.252;2023-12-14T06:48:41;11.30;;;5.57;;
38785;SDS011;24535;45.508;12.252;2023-12-14T06:51:06;9.95;;;5.90;;
38785;SDS011;24535;45.508;12.252;2023-12-14T06:53:33;7.97;;;5.47;;
38785;SDS011;24535;45.508;12.252;2023-12-14T06:55:59;7.78;;;5.22;;
38785;SDS011;24535;45.508;12.252;2023-12-14T06:58:25;9.20;;;5.85;;
38785;SDS011;24535;45.508;12.252;2023-12-14T07:00:50;9.18;;;5.70;;
38785;SDS011;24535;45.508;12.252;2023-12-14T07:03:16;8.82;;;4.47;;
38785;SDS011;24535;45.508;12.252;2023-12-14T07:05:41;8.10;;;5.57;;
38785;SDS011;24535;45.508;12.252;2023-12-14T07:08:07;10.82;;;6.47;;
38785;SDS011;24535;45.508;12.252;2023-12-14T07:10:32;6.43;;;4.75;;
38785;SDS011;24535;45.508;12.252;2023-12-14T07:12:58;7.63;;;4.97;;
38785;SDS011;24535;45.508;12.252;2023-12-14T07:15:23;8.85;;;6.22;;
38785;SDS011;24535;45.508;12.252;2023-12-14T07:17:49;8.25;;;5.50;;
38785;SDS011;24535;45.508;12.252;2023-12-14T07:20:15;7.53;;;5.25;;
38785;SDS011;24535;45.508;12.252;2023-12-14T07:22:40;9.93;;;5.00;;
38785;SDS011;24535;45.508;12.252;2023-12-14T07:25:06;9.73;;;6.43;;
38785;SDS011;24535;45.508;12.252;2023-12-14T07:27:32;7.10;;;5.95;;
38785;SDS011;24535;45.508;12.252;2023-12-14T07:29:57;10.77;;;7.00;;
38785;SDS011;24535;45.508;12.252;2023-12-14T07:32:23;8.10;;;6.82;;
38785;SDS011;24535;45.508;12.252;2023-12-14T07:34:48;8.07;;;5.75;;
38785;SDS011;24535;45.508;12.252;2023-12-14T07:37:14;8.13;;;5.78;;
38785;SDS011;24535;45.508;12.252;2023-12-14T07:39:39;9.43;;;6.32;;
38785;SDS011;24535;45.508;12.252;2023-12-14T07:42:05;8.25;;;5.65;;
38785;SDS011;24535;45.508;12.252;2023-12-14T07:44:30;11.85;;;6.45;;
38785;SDS011;24535;45.508;12.252;2023-12-14T07:46:56;6.32;;;5.43;;
38785;SDS011;24535;45.508;12.252;2023-12-14T07:49:25;6.63;;;4.93;;
38785;SDS011;24535;45.508;12.252;2023-12-14T07:51:50;6.97;;;5.80;;
38785;SDS011;24535;45.508;12.252;2023-12-14T07:54:16;8.82;;;5.63;;
38785;SDS011;24535;45.508;12.252;2023-12-14T07:56:42;7.40;;;5.88;;
38785;SDS011;24535;45.508;12.252;2023-12-14T07:59:07;9.73;;;6.85;;
38785;SDS011;24535;45.508;12.252;2023-12-14T08:01:34;7.93;;;5.53;;
38785;SDS011;24535;45.508;12.252;2023-12-14T08:03:59;11.52;;;6.38;;
38785;SDS011;24535;45.508;12.252;2023-12-14T08:06:25;13.13;;;6.22;;
38785;SDS011;24535;45.508;12.252;2023-12-14T08:08:50;9.15;;;5.47;;
38785;SDS011;24535;45.508;12.252;2023-12-14T08:11:16;8.10;;;6.18;;
38785;SDS011;24535;45.508;12.252;2023-12-14T08:13:42;8.40;;;6.55;;
38785;SDS011;24535;45.508;12.252;2023-12-14T08:16:07;7.70;;;5.30;;
38785;SDS011;24535;45.508;12.252;2023-12-14T08:18:33;10.40;;;6.07;;
38785;SDS011;24535;45.508;12.252;2023-12-14T08:20:58;9.25;;;5.82;;
38785;SDS011;24535;45.508;12.252;2023-12-14T08:23:24;7.80;;;6.35;;
38785;SDS011;24535;45.508;12.252;2023-12-14T08:25:52;9.15;;;6.65;;
38785;SDS011;24535;45.508;12.252;2023-12-14T08:30:47;7.72;;;5.05;;
38785;SDS011;24535;45.508;12.252;2023-12-14T08:33:12;8.80;;;5.80;;
38785;SDS011;24535;45.508;12.252;2023-12-14T08:35:37;8.38;;;5.32;;
38785;SDS011;24535;45.508;12.252;2023-12-14T08:38:03;7.75;;;5.88;;
38785;SDS011;24535;45.508;12.252;2023-12-14T08:40:28;9.38;;;6.30;;
38785;SDS011;24535;45.508;12.252;2023-12-14T08:42:54;8.82;;;6.43;;
38785;SDS011;24535;45.508;12.252;2023-12-14T08:45:20;7.20;;;5.50;;
38785;SDS011;24535;45.508;12.252;2023-12-14T08:47:45;6.78;;;5.50;;
38785;SDS011;24535;45.508;12.252;2023-12-14T08:50:11;8.43;;;7.05;;
38785;SDS011;24535;45.508;12.252;2023-12-14T08:52:37;12.52;;;6.03;;
38785;SDS011;24535;45.508;12.252;2023-12-14T08:55:03;10.10;;;6.68;;
38785;SDS011;24535;45.508;12.252;2023-12-14T08:57:29;8.88;;;5.55;;
38785;SDS011;24535;45.508;12.252;2023-12-14T08:59:56;8.25;;;6.43;;
38785;SDS011;24535;45.508;12.252;2023-12-14T09:02:21;7.35;;;5.97;;
38785;SDS011;24535;45.508;12.252;2023-12-14T09:04:47;8.90;;;7.18;;
38785;SDS011;24535;45.508;12.252;2023-12-14T09:07:12;9.00;;;6.30;;
38785;SDS011;24535;45.508;12.252;2023-12-14T09:09:38;12.88;;;7.10;;
38785;SDS011;24535;45.508;12.252;2023-12-14T09:12:03;9.50;;;7.18;;
38785;SDS011;24535;45.508;12.252;2023-12-14T09:14:29;8.75;;;6.50;;
38785;SDS011;24535;45.508;12.252;2023-12-14T09:16:55;8.20;;;6.85;;
38785;SDS011;24535;45.508;12.252;2023-12-14T09:19:21;9.55;;;6.18;;
38785;SDS011;24535;45.508;12.252;2023-12-14T09:21:46;9.48;;;7.53;;
38785;SDS011;24535;45.508;12.252;2023-12-14T09:24:11;9.15;;;6.38;;
38785;SDS011;24535;45.508;12.252;2023-12-14T09:26:37;6.70;;;5.95;;
38785;SDS011;24535;45.508;12.252;2023-12-14T09:29:02;6.50;;;5.32;;
38785;SDS011;24535;45.508;12.252;2023-12-14T09:31:28;6.70;;;5.63;;
38785;SDS011;24535;45.508;12.252;2023-12-14T09:33:53;7.18;;;6.40;;
38785;SDS011;24535;45.508;12.252;2023-12-14T09:36:19;4.78;;;4.15;;
38785;SDS011;24535;45.508;12.252;2023-12-14T09:38:44;4.53;;;4.05;;
38785;SDS011;24535;45.508;12.252;2023-12-14T09:41:10;4.43;;;4.03;;
38785;SDS011;24535;45.508;12.252;2023-12-14T09:43:37;6.55;;;5.18;;
38785;SDS011;24535;45.508;12.252;2023-12-14T09:46:02;7.18;;;5.28;;
38785;SDS011;24535;45.508;12.252;2023-12-14T09:48:29;7.45;;;4.78;;
38785;SDS011;24535;45.508;12.252;2023-12-14T09:50:55;6.38;;;4.95;;
38785;SDS011;24535;45.508;12.252;2023-12-14T09:53:20;7.55;;;5.57;;
38785;SDS011;24535;45.508;12.252;2023-12-14T09:55:46;4.72;;;4.03;;
38785;SDS011;24535;45.508;12.252;2023-12-14T09:58:11;4.72;;;4.13;;
38785;SDS011;24535;45.508;12.252;2023-12-14T10:00:41;6.40;;;4.50;;
38785;SDS011;24535;45.508;12.252;2023-12-14T10:03:19;5.18;;;3.85;;
38785;SDS011;24535;45.508;12.252;2023-12-14T10:05:51;6.47;;;4.47;;
38785;SDS011;24535;45.508;12.252;2023-12-14T10:08:18;4.57;;;3.63;;
38785;SDS011;24535;45.508;12.252;2023-12-14T10:10:46;3.92;;;3.30;;
38785;SDS011;24535;45.508;12.252;2023-12-14T10:13:14;4.68;;;4.18;;
38785;SDS011;24535;45.508;12.252;2023-12-14T10:15:40;5.97;;;4.63;;
38785;SDS011;24535;45.508;12.252;2023-12-14T10:20:35;4.03;;;3.30;;
38785;SDS011;24535;45.508;12.252;2023-12-14T10:23:02;4.97;;;3.75;;
38785;SDS011;24535;45.508;12.252;2023-12-14T10:25:29;5.45;;;4.30;;
38785;SDS011;24535;45.508;12.252;2023-12-14T10:27:55;4.30;;;3.90;;
38785;SDS011;24535;45.508;12.252;2023-12-14T10:30:22;5.38;;;4.03;;
38785;SDS011;24535;45.508;12.252;2023-12-14T10:32:47;6.55;;;4.07;;
38785;SDS011;24535;45.508;12.252;2023-12-14T10:35:14;6.95;;;3.63;;
38785;SDS011;24535;45.508;12.252;2023-12-14T10:37:41;4.00;;;3.53;;
38785;SDS011;24535;45.508;12.252;2023-12-14T10:40:08;3.90;;;3.25;;
38785;SDS011;24535;45.508;12.252;2023-12-14T10:42:37;7.03;;;4.07;;
38785;SDS011;24535;45.508;12.252;2023-12-14T10:45:05;6.25;;;3.55;;
38785;SDS011;24535;45.508;12.252;2023-12-14T10:47:31;3.25;;;2.95;;
38785;SDS011;24535;45.508;12.252;2023-12-14T10:49:58;4.53;;;3.17;;
38785;SDS011;24535;45.508;12.252;2023-12-14T10:52:25;4.18;;;3.50;;
38785;SDS011;24535;45.508;12.252;2023-12-14T10:54:52;5.05;;;3.67;;
38785;SDS011;24535;45.508;12.252;2023-12-14T10:57:23;4.55;;;3.15;;
38785;SDS011;24535;45.508;12.252;2023-12-14T10:59:49;3.05;;;2.72;;
38785;SDS011;24535;45.508;12.252;2023-12-14T11:02:15;3.78;;;3.38;;
38785;SDS011;24535;45.508;12.252;2023-12-14T11:04:56;4.88;;;2.65;;
38785;SDS011;24535;45.508;12.252;2023-12-14T11:07:43;2.90;;;2.35;;
38785;SDS011;24535;45.508;12.252;2023-12-14T11:10:13;4.50;;;3.88;;
38785;SDS011;24535;45.508;12.252;2023-12-14T11:15:21;4.40;;;3.10;;
38785;SDS011;24535;45.508;12.252;2023-12-14T11:23:09;4.03;;;3.30;;
38785;SDS011;24535;45.508;12.252;2023-12-14T11:25:35;2.80;;;2.50;;
38785;SDS011;24535;45.508;12.252;2023-12-14T11:28:04;3.67;;;2.83;;
38785;SDS011;24535;45.508;12.252;2023-12-14T11:30:31;6.28;;;3.03;;
38785;SDS011;24535;45.508;12.252;2023-12-14T11:32:57;3.78;;;3.00;;
38785;SDS011;24535;45.508;12.252;2023-12-14T11:35:22;3.65;;;3.20;;
38785;SDS011;24535;45.508;12.252;2023-12-14T11:37:48;2.58;;;2.38;;
38785;SDS011;24535;45.508;12.252;2023-12-14T11:40:14;4.78;;;2.90;;
38785;SDS011;24535;45.508;12.252;2023-12-14T11:42:56;2.97;;;2.53;;
38785;SDS011;24535;45.508;12.252;2023-12-14T11:45:25;3.65;;;2.78;;
38785;SDS011;24535;45.508;12.252;2023-12-14T11:47:51;4.05;;;2.72;;
38785;SDS011;24535;45.508;12.252;2023-12-14T11:50:16;3.85;;;3.33;;
38785;SDS011;24535;45.508;12.252;2023-12-14T11:52:43;7.47;;;4.15;;
38785;SDS011;24535;45.508;12.252;2023-12-14T11:55:10;3.38;;;2.78;;
38785;SDS011;24535;45.508;12.252;2023-12-14T11:57:36;2.88;;;2.53;;
38785;SDS011;24535;45.508;12.252;2023-12-14T12:00:01;7.18;;;4.35;;
38785;SDS011;24535;45.508;12.252;2023-12-14T12:02:28;5.10;;;3.00;;
38785;SDS011;24535;45.508;12.252;2023-12-14T12:04:53;3.58;;;2.95;;
38785;SDS011;24535;45.508;12.252;2023-12-14T12:07:19;4.13;;;3.53;;
38785;SDS011;24535;45.508;12.252;2023-12-14T12:09:45;5.75;;;3.40;;
38785;SDS011;24535;45.508;12.252;2023-12-14T12:12:12;3.10;;;2.65;;
38785;SDS011;24535;45.508;12.252;2023-12-14T12:14:38;4.40;;;3.45;;
38785;SDS011;24535;45.508;12.252;2023-12-14T12:17:05;6.00;;;4.45;;
38785;SDS011;24535;45.508;12.252;2023-12-14T12:19:32;6.38;;;3.40;;
38785;SDS011;24535;45.508;12.252;2023-12-14T12:21:59;5.30;;;4.13;;
38785;SDS011;24535;45.508;12.252;2023-12-14T12:24:25;4.30;;;3.35;;
38785;SDS011;24535;45.508;12.252;2023-12-14T12:26:50;6.85;;;3.95;;
38785;SDS011;24535;45.508;12.252;2023-12-14T12:29:16;7.30;;;3.63;;
38785;SDS011;24535;45.508;12.252;2023-12-14T12:31:41;10.07;;;5.40;;
38785;SDS011;24535;45.508;12.252;2023-12-14T12:34:08;4.65;;;3.65;;
38785;SDS011;24535;45.508;12.252;2023-12-14T12:36:33;6.63;;;3.83;;
38785;SDS011;24535;45.508;12.252;2023-12-14T12:38:59;5.38;;;3.65;;
38785;SDS011;24535;45.508;12.252;2023-12-14T12:41:24;4.13;;;3.13;;
38785;SDS011;24535;45.508;12.252;2023-12-14T12:43:50;3.90;;;3.22;;
38785;SDS011;24535;45.508;12.252;2023-12-14T12:46:16;6.03;;;3.70;;
38785;SDS011;24535;45.508;12.252;2023-12-14T12:48:41;5.13;;;3.65;;
38785;SDS011;24535;45.508;12.252;2023-12-14T12:51:06;4.55;;;3.75;;
38785;SDS011;24535;45.508;12.252;2023-12-14T12:53:32;6.70;;;3.50;;
38785;SDS011;24535;45.508;12.252;2023-12-14T12:55:58;6.88;;;4.20;;
38785;SDS011;24535;45.508;12.252;2023-12-14T12:58:23;3.92;;;3.38;;
38785;SDS011;24535;45.508;12.252;2023-12-14T13:00:49;5.85;;;4.13;;
38785;SDS011;24535;45.508;12.252;2023-12-14T13:03:14;7.05;;;3.85;;
38785;SDS011;24535;45.508;12.252;2023-12-14T13:05:40;5.85;;;3.40;;
38785;SDS011;24535;45.508;12.252;2023-12-14T13:08:05;4.35;;;3.63;;
38785;SDS011;24535;45.508;12.252;2023-12-14T13:10:31;6.85;;;3.67;;
38785;SDS011;24535;45.508;12.252;2023-12-14T13:12:57;9.25;;;3.97;;
38785;SDS011;24535;45.508;12.252;2023-12-14T13:15:23;3.33;;;2.90;;
38785;SDS011;24535;45.508;12.252;2023-12-14T13:17:50;5.60;;;3.80;;
38785;SDS011;24535;45.508;12.252;2023-12-14T13:20:16;3.88;;;3.42;;
38785;SDS011;24535;45.508;12.252;2023-12-14T13:22:41;10.85;;;3.63;;
38785;SDS011;24535;45.508;12.252;2023-12-14T13:25:07;9.00;;;4.43;;
38785;SDS011;24535;45.508;12.252;2023-12-14T13:27:32;4.72;;;3.25;;
38785;SDS011;24535;45.508;12.252;2023-12-14T13:30:01;6.10;;;4.20;;
38785;SDS011;24535;45.508;12.252;2023-12-14T13:32:26;5.60;;;3.92;;
38785;SDS011;24535;45.508;12.252;2023-12-14T13:34:51;5.85;;;3.75;;
38785;SDS011;24535;45.508;12.252;2023-12-14T13:37:17;6.53;;;4.22;;
38785;SDS011;24535;45.508;12.252;2023-12-14T13:39:42;6.05;;;3.67;;
38785;SDS011;24535;45.508;12.252;2023-12-14T13:42:08;4.97;;;3.25;;
38785;SDS011;24535;45.508;12.252;2023-12-14T13:44:33;4.97;;;3.67;;
38785;SDS011;24535;45.508;12.252;2023-12-14T13:47:01;7.72;;;4.25;;
38785;SDS011;24535;45.508;12.252;2023-12-14T13:49:26;8.43;;;4.63;;
38785;SDS011;24535;45.508;12.252;2023-12-14T13:51:52;5.78;;;4.28;;
38785;SDS011;24535;45.508;12.252;2023-12-14T13:54:17;4.15;;;3.00;;
38785;SDS011;24535;45.508;12.252;2023-12-14T13:56:43;7.97;;;3.92;;
38785;SDS011;24535;45.508;12.252;2023-12-14T13:59:08;6.25;;;3.72;;
38785;SDS011;24535;45.508;12.252;2023-12-14T14:01:33;4.28;;;3.78;;
38785;SDS011;24535;45.508;12.252;2023-12-14T14:03:59;5.03;;;3.97;;
38785;SDS011;24535;45.508;12.252;2023-12-14T14:06:24;5.10;;;3.33;;
38785;SDS011;24535;45.508;12.252;2023-12-14T14:08:50;5.65;;;4.13;;
38785;SDS011;24535;45.508;12.252;2023-12-14T14:11:15;3.85;;;3.15;;
38785;SDS011;24535;45.508;12.252;2023-12-14T14:13:40;6.72;;;3.42;;
38785;SDS011;24535;45.508;12.252;2023-12-14T14:16:06;4.20;;;2.85;;
38785;SDS011;24535;45.508;12.252;2023-12-14T14:18:32;5.72;;;3.28;;
38785;SDS011;24535;45.508;12.252;2023-12-14T14:20:58;4.25;;;3.30;;
38785;SDS011;24535;45.508;12.252;2023-12-14T14:23:24;4.43;;;3.13;;
38785;SDS011;24535;45.508;12.252;2023-12-14T14:25:51;6.03;;;3.35;;
38785;SDS011;24535;45.508;12.252;2023-12-14T14:28:19;5.65;;;2.80;;
38785;SDS011;24535;45.508;12.252;2023-12-14T14:30:46;4.90;;;3.47;;
38785;SDS011;24535;45.508;12.252;2023-12-14T14:33:13;5.15;;;3.00;;
38785;SDS011;24535;45.508;12.252;2023-12-14T14:35:43;5.13;;;3.25;;
38785;SDS011;24535;45.508;12.252;2023-12-14T14:38:13;5.05;;;4.13;;
38785;SDS011;24535;45.508;12.252;2023-12-14T14:40:39;8.00;;;3.38;;